This is the latest recevied weather packets stored in our database for station/object KD0RII. If no packets are shown the sender has not sent any weather packets the latest 10 day(s).
| Time | Temp. | Humidity | Pressure | Rain* | Wind** | Luminosity | Snow |
|---|---|---|---|---|---|---|---|
| 1777940768 | 25.56° C | 56% | 1002.9 hPa | 0 mm | - | 47 W/m² | - |
| 1777940462 | 25.56° C | 55% | 1003 hPa | 0 mm | - | 54 W/m² | - |
| 1777940158 | 25.56° C | 55% | 1002.9 hPa | 0 mm | - | 65 W/m² | - |
| 1777939855 | 25.56° C | 54% | 1003 hPa | 0 mm | - | 72 W/m² | - |
| 1777939552 | 25.56° C | 55% | 1003 hPa | 0 mm | - | 66 W/m² | - |
| 1777939250 | 25.56° C | 55% | 1002.9 hPa | 0 mm | - | 68 W/m² | - |
| 1777938946 | 26.11° C | 55% | 1002.8 hPa | 0 mm | - | 65 W/m² | - |
| 1777938643 | 26.67° C | 53% | 1002.9 hPa | 0 mm | - | 87 W/m² | - |
| 1777938340 | 26.67° C | 53% | 1003.1 hPa | 0 mm | - | 105 W/m² | - |
| 1777938037 | 26.67° C | 53% | 1003.1 hPa | 0 mm | - | 157 W/m² | - |
| 1777937732 | 26.67° C | 52% | 1003.2 hPa | 0 mm | - | 132 W/m² | - |
| 1777937429 | 27.22° C | 52% | 1003 hPa | 0 mm | - | 135 W/m² | - |
| 1777937126 | 27.22° C | 51% | 1003.2 hPa | 0 mm | - | 134 W/m² | - |
| 1777936824 | 27.22° C | 52% | 1003.2 hPa | 0 mm | - | 221 W/m² | - |
| 1777936520 | 27.78° C | 51% | 1003.1 hPa | 0 mm | - | 107 W/m² | - |
| 1777936216 | 28.89° C | 47% | 1003.1 hPa | 0 mm | - | 131 W/m² | - |
| 1777935913 | 28.33° C | 51% | 1003.2 hPa | 0 mm | - | 197 W/m² | - |
| 1777935607 | 28.89° C | 47% | 1003.2 hPa | 0 mm | - | 186 W/m² | - |
| 1777935303 | 29.44° C | 46% | 1003.1 hPa | 0 mm | - | 108 W/m² | - |
| 1777935000 | 30° C | 47% | 1003.1 hPa | 0 mm | - | 133 W/m² | - |
| 1777934696 | 29.44° C | 43% | 1003 hPa | 0 mm | - | 259 W/m² | - |
| 1777934394 | 29.44° C | 42% | 1002.9 hPa | 0 mm | - | 197 W/m² | - |
| 1777934090 | 28.89° C | 46% | 1003.1 hPa | 0 mm | - | 197 W/m² | - |
| 1777933786 | 28.89° C | 45% | 1002.9 hPa | 0 mm | - | 174 W/m² | - |
| 1777933484 | 28.33° C | 45% | 1002.9 hPa | 0 mm | - | 401 W/m² | - |
* Rain latest hour (hover to see other rain measurements)
** Current wind speed in m/s (hover to see current wind gust speed)